createdAt,value
2022-12-12T00:00:47.576Z,20.20
2022-12-12T00:03:17.199Z,20.30
2022-12-12T00:05:46.830Z,20.20
2022-12-12T00:08:16.487Z,20.20
2022-12-12T00:10:46.600Z,20.30
2022-12-12T00:13:16.190Z,20.30
2022-12-12T00:15:45.866Z,20.20
2022-12-12T00:18:15.410Z,20.20
2022-12-12T00:20:45.038Z,20.30
2022-12-12T00:23:14.649Z,20.20
2022-12-12T00:25:44.179Z,20.30
2022-12-12T00:28:13.767Z,20.30
2022-12-12T00:30:43.390Z,20.30
2022-12-12T00:33:12.884Z,20.30
2022-12-12T00:35:42.456Z,20.40
2022-12-12T00:38:12.187Z,20.40
2022-12-12T00:40:41.772Z,20.40
2022-12-12T00:43:11.820Z,20.50
2022-12-12T00:45:41.865Z,20.50
2022-12-12T00:48:12.437Z,20.60
2022-12-12T00:50:42.078Z,20.60
2022-12-12T00:53:12.006Z,20.70
2022-12-12T00:55:43.102Z,20.70
2022-12-12T00:58:13.086Z,20.80
2022-12-12T01:00:43.332Z,20.80
2022-12-12T01:03:13.346Z,20.80
2022-12-12T01:05:43.333Z,20.90
2022-12-12T01:08:13.447Z,20.90
2022-12-12T01:10:43.578Z,21.00
2022-12-12T01:13:13.563Z,21.10
2022-12-12T01:15:43.605Z,21.10
2022-12-12T01:18:13.636Z,21.20
2022-12-12T01:20:44.468Z,21.20
2022-12-12T01:23:14.511Z,21.20
2022-12-12T01:25:44.457Z,21.30
2022-12-12T01:28:14.461Z,21.30
2022-12-12T01:30:44.550Z,21.40
2022-12-12T01:33:14.441Z,21.40
2022-12-12T01:35:44.427Z,21.50
2022-12-12T01:38:14.256Z,21.60
2022-12-12T01:40:44.256Z,21.60
2022-12-12T01:43:18.930Z,21.70
2022-12-12T01:46:27.649Z,21.80
2022-12-12T01:49:08.350Z,21.80
2022-12-12T01:51:38.994Z,21.90
2022-12-12T01:54:16.467Z,21.90
2022-12-12T01:56:49.191Z,22.00
2022-12-12T01:59:23.040Z,22.10
2022-12-12T02:01:54.687Z,22.10
2022-12-12T02:04:25.859Z,22.20
2022-12-12T02:06:56.491Z,22.30
2022-12-12T02:09:27.878Z,22.30
2022-12-12T02:11:59.909Z,22.40
2022-12-12T02:14:36.729Z,22.40
2022-12-12T02:17:27.206Z,22.50
2022-12-12T02:20:28.309Z,22.60
2022-12-12T02:23:36.965Z,22.60
2022-12-12T02:26:35.351Z,22.70
2022-12-12T02:29:44.020Z,22.80
2022-12-12T02:32:52.781Z,22.90
2022-12-12T02:35:36.780Z,22.90
2022-12-12T02:38:39.930Z,23.00
2022-12-12T02:41:41.308Z,23.10
2022-12-12T02:44:41.112Z,23.20
2022-12-12T02:47:20.953Z,23.20
2022-12-12T02:50:14.579Z,23.30
2022-12-12T02:52:49.422Z,23.30
2022-12-12T02:55:21.142Z,23.30
2022-12-12T02:57:53.227Z,23.40
2022-12-12T03:00:23.403Z,23.40
2022-12-12T03:03:51.773Z,23.50
2022-12-12T03:07:00.435Z,23.50
2022-12-12T03:10:02.662Z,23.50
2022-12-12T03:13:02.041Z,23.50
2022-12-12T03:16:11.309Z,23.50
2022-12-12T03:19:19.308Z,23.60
2022-12-12T03:22:03.131Z,23.60
2022-12-12T03:25:03.938Z,23.70
2022-12-12T03:27:56.124Z,23.70
2022-12-12T03:30:26.412Z,23.70
2022-12-12T03:33:13.885Z,23.80
2022-12-12T03:35:55.998Z,23.80
2022-12-12T03:38:31.071Z,23.80
2022-12-12T03:41:07.082Z,23.80
2022-12-12T03:43:46.835Z,23.90
2022-12-12T03:46:41.708Z,24.00
2022-12-12T03:49:38.174Z,24.00
2022-12-12T03:52:16.993Z,24.10
2022-12-12T03:55:15.124Z,24.10
2022-12-12T03:58:04.131Z,24.30
2022-12-12T04:00:38.957Z,24.30
2022-12-12T04:03:47.682Z,24.40
2022-12-12T04:06:44.181Z,24.50
2022-12-12T04:09:36.199Z,24.50
2022-12-12T04:12:51.920Z,24.70
2022-12-12T04:15:49.846Z,24.70
2022-12-12T04:18:49.211Z,24.90
2022-12-12T04:22:01.812Z,25.00
2022-12-12T04:24:50.436Z,25.10
2022-12-12T04:27:41.544Z,25.20
2022-12-12T04:30:13.888Z,25.30
2022-12-12T04:33:10.575Z,25.40
2022-12-12T04:35:47.301Z,25.50
2022-12-12T04:38:24.602Z,25.50
2022-12-12T04:40:58.047Z,25.60
2022-12-12T04:43:39.071Z,25.60
2022-12-12T04:46:18.322Z,25.60
2022-12-12T04:48:56.445Z,25.70
2022-12-12T04:51:28.422Z,25.70
2022-12-12T04:54:22.579Z,25.60
2022-12-12T04:56:56.545Z,25.60
2022-12-12T04:59:27.583Z,25.60
2022-12-12T05:02:03.988Z,25.60
2022-12-12T05:05:01.061Z,25.60
2022-12-12T05:07:40.770Z,25.60
2022-12-12T05:10:16.333Z,25.60
2022-12-12T05:12:49.034Z,25.50
2022-12-12T05:15:20.848Z,25.50
2022-12-12T05:18:00.924Z,25.60
2022-12-12T05:20:32.119Z,25.60
2022-12-12T05:23:01.981Z,25.50
2022-12-12T05:25:31.549Z,25.60
2022-12-12T05:28:01.180Z,25.60
2022-12-12T05:30:31.074Z,25.50
2022-12-12T05:33:00.631Z,25.50
2022-12-12T05:35:30.338Z,25.50
2022-12-12T05:37:59.935Z,25.50
2022-12-12T05:40:29.648Z,25.60
2022-12-12T05:42:59.253Z,25.50
2022-12-12T05:45:28.865Z,25.50
2022-12-12T05:47:59.481Z,25.60
2022-12-12T05:50:29.015Z,25.60
2022-12-12T05:52:58.626Z,25.60
2022-12-12T05:55:28.478Z,25.60
2022-12-12T05:57:58.013Z,25.60
2022-12-12T06:00:28.380Z,25.60
2022-12-12T06:02:57.945Z,25.60
2022-12-12T06:05:27.607Z,25.60
2022-12-12T06:07:57.336Z,25.60
2022-12-12T06:10:26.940Z,25.60
2022-12-12T06:12:56.587Z,25.70
2022-12-12T06:15:26.559Z,25.70
2022-12-12T06:17:56.754Z,25.80
2022-12-12T06:20:26.381Z,25.80
2022-12-12T06:22:56.048Z,25.90
2022-12-12T06:25:25.692Z,25.90
2022-12-12T06:27:55.469Z,25.90
2022-12-12T06:30:25.093Z,25.90
2022-12-12T06:32:55.002Z,25.90
2022-12-12T06:35:24.552Z,25.90
2022-12-12T06:37:54.200Z,25.90
2022-12-12T06:40:23.752Z,25.90
2022-12-12T06:42:53.377Z,26.00
2022-12-12T06:45:23.339Z,26.00
2022-12-12T06:47:53.807Z,26.00
2022-12-12T06:50:23.968Z,26.00
2022-12-12T06:52:53.741Z,26.00
2022-12-12T06:55:23.407Z,25.90
2022-12-12T06:57:53.235Z,25.90
2022-12-12T07:00:23.080Z,25.90
2022-12-12T07:02:53.813Z,25.90
2022-12-12T07:05:23.685Z,25.90
2022-12-12T07:07:53.610Z,25.80
2022-12-12T07:10:23.524Z,25.80
2022-12-12T07:12:57.320Z,25.80
2022-12-12T07:15:27.488Z,25.90
2022-12-12T07:17:57.462Z,25.80
2022-12-12T07:20:27.630Z,25.90
2022-12-12T07:22:57.549Z,25.90
2022-12-12T07:25:27.537Z,25.90
2022-12-12T07:27:57.431Z,25.90
2022-12-12T07:30:27.352Z,25.90
2022-12-12T07:32:57.310Z,26.00
2022-12-12T07:35:27.540Z,26.00
2022-12-12T07:37:58.272Z,26.10
2022-12-12T07:40:28.386Z,26.10
2022-12-12T07:42:58.340Z,26.20
2022-12-12T07:45:28.406Z,26.20
2022-12-12T07:47:58.313Z,26.30
2022-12-12T07:50:28.317Z,26.30
2022-12-12T07:52:58.347Z,26.30
2022-12-12T07:55:28.241Z,26.30
2022-12-12T07:57:58.401Z,26.30
2022-12-12T08:00:28.437Z,26.30
2022-12-12T08:02:59.253Z,26.20
2022-12-12T08:05:29.642Z,26.20
2022-12-12T08:07:59.656Z,26.20
2022-12-12T08:10:29.620Z,26.20
2022-12-12T08:12:59.554Z,26.20
2022-12-12T08:15:29.486Z,26.20
2022-12-12T08:17:59.434Z,26.20
2022-12-12T08:20:29.364Z,26.20
2022-12-12T08:23:00.533Z,26.20
2022-12-12T08:25:30.449Z,26.20
2022-12-12T08:28:00.295Z,26.10
2022-12-12T08:30:30.467Z,26.10
2022-12-12T08:33:03.590Z,26.10
2022-12-12T08:35:37.785Z,26.10
2022-12-12T08:38:07.686Z,26.10
2022-12-12T08:40:38.723Z,26.10
2022-12-12T08:43:08.554Z,26.10
2022-12-12T08:45:40.685Z,26.10
2022-12-12T08:48:12.594Z,26.20
2022-12-12T08:50:43.236Z,26.20
2022-12-12T08:53:13.119Z,26.20
2022-12-12T08:55:43.963Z,26.20
2022-12-12T08:58:13.903Z,26.10
2022-12-12T09:00:44.058Z,26.10
2022-12-12T09:03:14.766Z,26.10
2022-12-12T09:05:48.029Z,26.20
2022-12-12T09:08:17.682Z,26.20
2022-12-12T09:10:52.237Z,26.20
2022-12-12T09:13:22.664Z,26.20
2022-12-12T09:15:55.822Z,26.20
2022-12-12T09:18:25.932Z,26.30
2022-12-12T09:20:58.004Z,26.30
2022-12-12T09:23:29.315Z,26.30
2022-12-12T09:25:59.505Z,26.20
2022-12-12T09:28:29.429Z,26.30
2022-12-12T09:30:58.948Z,26.30
2022-12-12T09:33:28.676Z,26.30
2022-12-12T09:36:03.318Z,26.30
2022-12-12T09:38:33.503Z,26.30
2022-12-12T09:41:05.987Z,26.30
2022-12-12T09:43:50.016Z,26.30
2022-12-12T09:46:41.762Z,26.30
2022-12-12T09:49:45.133Z,26.30
2022-12-12T09:52:30.654Z,26.20
2022-12-12T09:55:02.624Z,26.10
2022-12-12T09:57:46.493Z,26.10
2022-12-12T10:00:18.097Z,26.00
2022-12-12T10:03:20.244Z,26.00
2022-12-12T10:06:36.407Z,25.90
2022-12-12T10:09:33.294Z,25.90
2022-12-12T10:12:08.399Z,25.80
2022-12-12T10:14:58.124Z,25.80
2022-12-12T10:17:48.430Z,25.70
2022-12-12T10:20:32.849Z,25.70
2022-12-12T10:23:28.019Z,25.60
2022-12-12T10:26:09.284Z,25.60
2022-12-12T10:28:38.880Z,25.50
2022-12-12T10:31:42.014Z,25.50
2022-12-12T10:34:42.305Z,25.40
2022-12-12T10:37:24.757Z,25.40
2022-12-12T10:40:21.889Z,25.30
2022-12-12T10:43:19.272Z,25.30
2022-12-12T10:46:26.331Z,25.20
2022-12-12T10:48:56.824Z,25.20
2022-12-12T10:51:29.676Z,25.10
2022-12-12T10:53:59.370Z,25.10
2022-12-12T10:56:33.735Z,25.10
2022-12-12T10:59:03.623Z,25.00
2022-12-12T11:04:33.687Z,24.90
2022-12-12T11:07:03.792Z,24.80
2022-12-12T11:09:33.414Z,24.70
2022-12-12T11:12:15.854Z,24.70
2022-12-12T11:15:03.142Z,24.60
2022-12-12T11:17:35.359Z,24.50
2022-12-12T11:20:10.377Z,24.50
2022-12-12T11:22:41.455Z,24.40
2022-12-12T11:25:31.652Z,24.30
2022-12-12T11:28:07.070Z,24.20
2022-12-12T11:30:44.225Z,24.20
2022-12-12T11:33:24.033Z,24.10
2022-12-12T11:35:58.352Z,24.10
2022-12-12T11:38:50.473Z,24.10
2022-12-12T11:41:20.624Z,24.00
2022-12-12T11:44:01.844Z,23.90
2022-12-12T11:46:35.243Z,23.80
2022-12-12T11:49:17.023Z,23.70
2022-12-12T11:51:47.908Z,23.60
2022-12-12T11:54:31.329Z,23.50
2022-12-12T11:57:36.653Z,23.50
2022-12-12T12:00:28.317Z,23.40
2022-12-12T12:03:26.330Z,23.40
2022-12-12T12:06:15.333Z,23.40
2022-12-12T12:09:13.184Z,23.30
2022-12-12T12:12:03.056Z,23.30
2022-12-12T12:14:57.108Z,23.30
2022-12-12T12:17:50.839Z,23.20
2022-12-12T12:20:40.439Z,23.20
2022-12-12T12:23:48.824Z,23.20
2022-12-12T12:26:51.311Z,23.10
2022-12-12T12:29:59.966Z,23.10
2022-12-12T12:33:04.411Z,23.00
2022-12-12T12:36:17.684Z,23.00
2022-12-12T12:39:20.079Z,23.00
2022-12-12T12:42:14.420Z,23.00
2022-12-12T12:44:59.596Z,23.00
2022-12-12T12:47:58.138Z,23.00
2022-12-12T12:50:35.640Z,22.90
2022-12-12T12:53:44.377Z,22.90
2022-12-12T12:56:28.621Z,22.90
2022-12-12T12:59:06.320Z,22.90
2022-12-12T13:01:48.956Z,22.90
2022-12-12T13:04:43.319Z,22.90
2022-12-12T13:07:41.124Z,22.90
2022-12-12T13:10:30.293Z,22.90
2022-12-12T13:13:40.473Z,22.80
2022-12-12T13:16:24.802Z,22.80
2022-12-12T13:19:15.101Z,22.80
2022-12-12T13:22:16.526Z,22.70
2022-12-12T13:25:21.451Z,22.70
2022-12-12T13:27:55.006Z,22.70
2022-12-12T13:30:29.619Z,22.60
2022-12-12T13:33:38.351Z,22.70
2022-12-12T13:36:27.664Z,22.60
2022-12-12T13:39:01.666Z,22.60
2022-12-12T13:42:00.459Z,22.60
2022-12-12T13:44:50.960Z,22.60
2022-12-12T13:47:59.723Z,22.50
2022-12-12T13:50:29.779Z,22.60
2022-12-12T13:53:20.429Z,22.60
2022-12-12T13:55:50.678Z,22.60
2022-12-12T13:58:33.783Z,22.50
2022-12-12T14:01:42.604Z,22.50
2022-12-12T14:04:36.484Z,22.50
2022-12-12T14:07:23.723Z,22.50
2022-12-12T14:09:58.719Z,22.50
2022-12-12T14:12:36.501Z,22.50
2022-12-12T14:15:09.840Z,22.50
2022-12-12T14:17:43.140Z,22.50
2022-12-12T14:20:37.768Z,22.60
2022-12-12T14:23:29.144Z,22.50
2022-12-12T14:26:01.538Z,22.60
2022-12-12T14:28:35.337Z,22.50
2022-12-12T14:31:18.263Z,22.60
2022-12-12T14:34:27.071Z,22.50
2022-12-12T14:37:30.587Z,22.50
2022-12-12T14:40:25.123Z,22.50
2022-12-12T14:43:23.045Z,22.50
2022-12-12T14:45:59.653Z,22.50
2022-12-12T14:48:38.210Z,22.50
2022-12-12T14:51:31.132Z,22.50
2022-12-12T14:54:03.621Z,22.50
2022-12-12T14:56:52.255Z,22.50
2022-12-12T14:59:28.792Z,22.50
2022-12-12T15:02:20.429Z,22.50
2022-12-12T15:05:00.953Z,22.50
2022-12-12T15:07:40.211Z,22.40
2022-12-12T15:10:31.208Z,22.40
2022-12-12T15:13:01.607Z,22.40
2022-12-12T15:15:35.042Z,22.40
2022-12-12T15:18:05.032Z,22.30
2022-12-12T15:20:35.244Z,22.40
2022-12-12T15:23:10.417Z,22.40
2022-12-12T15:25:55.477Z,22.30
2022-12-12T15:28:27.923Z,22.30
2022-12-12T15:30:58.124Z,22.30
2022-12-12T15:33:29.643Z,22.30
2022-12-12T15:36:06.614Z,22.30
2022-12-12T15:38:37.319Z,22.30
2022-12-12T15:41:13.278Z,22.30
2022-12-12T15:43:47.427Z,22.20
2022-12-12T15:46:18.582Z,22.20
2022-12-12T15:48:51.283Z,22.20
2022-12-12T15:51:25.221Z,22.20
2022-12-12T15:53:57.109Z,22.20
2022-12-12T15:56:31.576Z,22.20
2022-12-12T15:59:18.583Z,22.20
2022-12-12T16:01:48.146Z,22.20
2022-12-12T16:04:30.227Z,22.30
2022-12-12T16:07:26.538Z,22.30
2022-12-12T16:10:24.137Z,22.30
2022-12-12T16:13:28.044Z,22.30
2022-12-12T16:15:57.672Z,22.30
2022-12-12T16:18:31.525Z,22.30
2022-12-12T16:21:03.779Z,22.30
2022-12-12T16:23:44.573Z,22.30
2022-12-12T16:26:14.122Z,22.30
2022-12-12T16:28:43.873Z,22.40
2022-12-12T16:31:20.820Z,22.40
2022-12-12T16:33:51.210Z,22.40
2022-12-12T16:36:21.795Z,22.40
2022-12-12T16:38:51.384Z,22.30
2022-12-12T16:41:21.413Z,22.30
2022-12-12T16:43:51.603Z,22.30
2022-12-12T16:46:26.539Z,22.30
2022-12-12T16:48:57.779Z,22.30
2022-12-12T16:51:30.542Z,22.20
2022-12-12T16:54:00.534Z,22.20
2022-12-12T16:56:30.442Z,22.20
2022-12-12T16:59:00.391Z,22.20
2022-12-12T17:01:35.859Z,22.20
2022-12-12T17:04:08.971Z,22.10
2022-12-12T17:06:38.851Z,22.10
2022-12-12T17:09:08.668Z,22.10
2022-12-12T17:11:38.710Z,22.10
2022-12-12T17:14:14.177Z,22.10
2022-12-12T17:16:43.771Z,22.00
2022-12-12T17:19:13.379Z,22.00
2022-12-12T17:21:42.913Z,22.00
2022-12-12T17:24:12.591Z,21.90
2022-12-12T17:26:42.631Z,21.90
2022-12-12T17:29:12.640Z,21.90
2022-12-12T17:31:42.640Z,21.80
2022-12-12T17:34:13.257Z,21.80
2022-12-12T17:36:42.843Z,21.70
2022-12-12T17:39:12.983Z,21.70
2022-12-12T17:41:42.568Z,21.70
2022-12-12T17:44:12.150Z,21.70
2022-12-12T17:46:43.206Z,21.70
2022-12-12T17:49:12.726Z,21.70
2022-12-12T17:51:42.362Z,21.60
2022-12-12T17:54:11.993Z,21.60
2022-12-12T17:56:42.033Z,21.60
2022-12-12T17:59:11.996Z,21.60
2022-12-12T18:01:42.012Z,21.50
2022-12-12T18:04:11.871Z,21.50
2022-12-12T18:06:41.718Z,21.50
2022-12-12T18:09:11.663Z,21.50
2022-12-12T18:11:43.643Z,21.50
2022-12-12T18:14:20.803Z,21.40
2022-12-12T18:16:52.792Z,21.40
2022-12-12T18:19:24.708Z,21.40
2022-12-12T18:22:02.496Z,21.40
2022-12-12T18:24:34.067Z,21.40
2022-12-12T18:27:05.171Z,21.30
2022-12-12T18:29:34.907Z,21.30
2022-12-12T18:32:04.586Z,21.30
2022-12-12T18:34:34.254Z,21.30
2022-12-12T18:37:03.782Z,21.30
2022-12-12T18:39:33.362Z,21.20
2022-12-12T18:42:02.979Z,21.20
2022-12-12T18:44:32.558Z,21.20
2022-12-12T18:47:02.084Z,21.20
2022-12-12T18:49:31.735Z,21.20
2022-12-12T18:52:01.802Z,21.10
2022-12-12T18:54:31.380Z,21.10
2022-12-12T18:57:01.000Z,21.10
2022-12-12T18:59:30.961Z,21.10
2022-12-12T19:02:00.902Z,21.00
2022-12-12T19:04:30.872Z,21.10
2022-12-12T19:07:01.177Z,21.00
2022-12-12T19:09:31.256Z,21.00
2022-12-12T19:12:02.605Z,21.00
2022-12-12T19:14:59.863Z,21.00
2022-12-12T19:17:26.220Z,21.10
2022-12-12T19:19:56.723Z,21.00
2022-12-12T19:25:17.745Z,21.00
2022-12-12T19:27:47.525Z,21.00
2022-12-12T19:30:18.235Z,21.00
2022-12-12T19:32:50.495Z,21.00
2022-12-12T19:35:20.049Z,21.00
2022-12-12T19:37:49.649Z,21.00
2022-12-12T19:40:19.347Z,21.00
2022-12-12T19:42:49.062Z,21.00
2022-12-12T19:45:18.906Z,21.00
2022-12-12T19:47:48.520Z,21.00
2022-12-12T19:50:18.176Z,21.00
2022-12-12T19:52:47.707Z,21.00
2022-12-12T19:55:17.373Z,21.00
2022-12-12T19:57:47.336Z,21.00
2022-12-12T20:00:21.444Z,21.00
2022-12-12T20:02:51.374Z,21.00
2022-12-12T20:05:21.195Z,20.90
2022-12-12T20:07:51.181Z,20.90
2022-12-12T20:10:21.198Z,20.90
2022-12-12T20:12:58.153Z,20.90
2022-12-12T20:15:29.657Z,20.90
2022-12-12T20:18:02.033Z,20.90
2022-12-12T20:20:32.088Z,20.80
2022-12-12T20:23:02.033Z,20.80
2022-12-12T20:25:31.937Z,20.80
2022-12-12T20:28:02.022Z,20.80
2022-12-12T20:30:31.832Z,20.80
2022-12-12T20:33:01.697Z,20.80
2022-12-12T20:35:31.642Z,20.70
2022-12-12T20:38:01.541Z,20.70
2022-12-12T20:40:31.484Z,20.60
2022-12-12T20:43:03.638Z,20.60
2022-12-12T20:45:33.919Z,20.60
2022-12-12T20:48:07.571Z,20.60
2022-12-12T20:50:37.879Z,20.60
2022-12-12T20:53:07.749Z,20.60
2022-12-12T20:55:38.678Z,20.60
2022-12-12T20:58:08.242Z,20.60
2022-12-12T21:00:39.793Z,20.60
2022-12-12T21:03:09.391Z,20.60
2022-12-12T21:05:38.957Z,20.60
2022-12-12T21:08:08.713Z,20.60
2022-12-12T21:10:38.404Z,20.60
2022-12-12T21:13:07.990Z,20.60
2022-12-12T21:15:38.522Z,20.50
2022-12-12T21:18:08.139Z,20.60
2022-12-12T21:20:37.784Z,20.60
2022-12-12T21:23:07.470Z,20.50
2022-12-12T21:25:38.454Z,20.50
2022-12-12T21:28:08.139Z,20.50
2022-12-12T21:30:37.827Z,20.60
2022-12-12T21:33:07.353Z,20.50
2022-12-12T21:35:38.449Z,20.50
2022-12-12T21:38:08.130Z,20.60
2022-12-12T21:40:38.851Z,20.60
2022-12-12T21:43:08.447Z,20.60
2022-12-12T21:45:40.173Z,20.60
2022-12-12T21:48:10.057Z,20.50
2022-12-12T21:50:40.701Z,20.60
2022-12-12T21:53:30.114Z,20.50
2022-12-12T21:56:04.863Z,20.50
2022-12-12T21:58:36.101Z,20.50
2022-12-12T22:01:09.556Z,20.50
2022-12-12T22:03:40.101Z,20.50
2022-12-12T22:06:22.378Z,20.50
2022-12-12T22:08:52.848Z,20.40
2022-12-12T22:11:33.921Z,20.50
2022-12-12T22:14:12.581Z,20.40
2022-12-12T22:16:42.958Z,20.40
2022-12-12T22:19:17.539Z,20.40
2022-12-12T22:21:49.052Z,20.40
2022-12-12T22:24:19.964Z,20.40
2022-12-12T22:26:51.442Z,20.40
2022-12-12T22:29:22.887Z,20.40
2022-12-12T22:31:53.821Z,20.40
2022-12-12T22:34:25.987Z,20.30
2022-12-12T22:36:55.782Z,20.30
2022-12-12T22:39:30.068Z,20.30
2022-12-12T22:41:59.939Z,20.30
2022-12-12T22:44:29.612Z,20.30
2022-12-12T22:46:59.212Z,20.30
2022-12-12T22:49:29.573Z,20.30
2022-12-12T22:51:59.929Z,20.30
2022-12-12T22:54:29.934Z,20.30
2022-12-12T22:56:59.572Z,20.30
2022-12-12T22:59:29.663Z,20.30
2022-12-12T23:01:59.507Z,20.20
2022-12-12T23:04:29.488Z,20.20
2022-12-12T23:06:59.383Z,20.20
2022-12-12T23:09:29.449Z,20.20
2022-12-12T23:11:59.422Z,20.20
2022-12-12T23:14:30.031Z,20.20
2022-12-12T23:17:00.520Z,20.20
2022-12-12T23:19:30.577Z,20.20
2022-12-12T23:22:00.128Z,20.20
2022-12-12T23:24:29.729Z,20.20
2022-12-12T23:27:00.535Z,20.10
2022-12-12T23:29:30.232Z,20.10
2022-12-12T23:32:04.441Z,20.10
2022-12-12T23:34:34.255Z,20.10
2022-12-12T23:37:03.858Z,20.20
2022-12-12T23:39:33.461Z,20.20
2022-12-12T23:42:03.172Z,20.20
2022-12-12T23:44:32.773Z,20.20
2022-12-12T23:47:02.276Z,20.20
2022-12-12T23:49:31.880Z,20.20
2022-12-12T23:52:01.983Z,20.20
2022-12-12T23:54:34.180Z,20.10
2022-12-12T23:57:04.775Z,20.20
2022-12-12T23:59:37.570Z,20.10
